Time;durP1;ratioP1;P1;durP2;ratioP2;P2;SDS_P1;SDS_P2;PMS_P1;PMS_P2;Temp;Humidity;BMP_temperature;BMP_pressure;BME280_temperature;BME280_humidity;BME280_pressure;Samples;Min_cycle;Max_cycle;Signal;HPM_P1;HPM_P2
2023/11/21 00:02:09;;;;;;;7.35;4.47;;;7.80;99.90;;;8.49;100.00;97366.56;10397995;28;20228;-67
2023/11/21 00:07:14;;;;;;;8.30;4.60;;;7.90;99.90;;;8.45;100.00;97372.28;10401041;28;20233;-66
2023/11/21 00:12:17;;;;;;;8.25;4.82;;;7.80;99.90;;;8.47;100.00;97367.25;10399859;28;20226;-66
2023/11/21 00:17:20;;;;;;;8.87;5.33;;;7.90;99.90;;;8.30;100.00;97356.09;10398792;28;20233;-66
2023/11/21 00:22:25;;;;;;;10.70;5.28;;;7.70;99.90;;;8.30;100.00;97348.47;10400221;28;20226;-67
2023/11/21 00:27:28;;;;;;;9.60;5.22;;;7.70;99.90;;;8.17;100.00;97346.88;10402793;28;20233;-66
2023/11/21 00:32:32;;;;;;;8.03;4.97;;;7.60;99.90;;;8.17;100.00;97349.41;10397095;28;20350;-66
2023/11/21 00:37:38;;;;;;;7.85;5.40;;;7.70;99.90;;;8.31;100.00;97355.31;10399250;28;20229;-66
2023/11/21 00:42:42;;;;;;;8.97;5.00;;;7.80;99.90;;;8.40;100.00;97345.66;10398087;28;20230;-66
2023/11/21 00:47:45;;;;;;;8.57;5.47;;;7.80;99.90;;;8.37;100.00;97350.56;10400147;28;20605;-67
2023/11/21 00:52:51;;;;;;;8.73;5.72;;;7.80;99.90;;;8.31;100.00;97340.03;10398770;28;20226;-66
2023/11/21 00:57:54;;;;;;;7.40;5.30;;;7.80;99.90;;;8.21;100.00;97346.28;10398172;28;20233;-66
2023/11/21 01:02:58;;;;;;;8.20;5.17;;;7.80;99.90;;;8.37;100.00;97345.47;10397301;28;20233;-65
2023/11/21 01:08:02;;;;;;;9.13;5.25;;;7.90;99.90;;;8.40;100.00;97344.81;10399452;28;20229;-65
2023/11/21 01:13:06;;;;;;;7.77;5.47;;;7.90;99.90;;;8.41;100.00;97336.34;10395436;28;20222;-65
2023/11/21 01:18:10;;;;;;;6.95;5.47;;;7.90;99.90;;;8.42;100.00;97333.03;10397513;28;20711;-66
2023/11/21 01:23:14;;;;;;;6.43;4.77;;;7.90;99.90;;;8.45;100.00;97345.94;10401346;28;20226;-65
2023/11/21 01:28:17;;;;;;;6.90;4.63;;;7.90;99.90;;;8.41;100.00;97342.31;10394607;28;20618;-66
2023/11/21 01:33:20;;;;;;;8.73;4.55;;;7.90;99.90;;;8.52;100.00;97340.41;10398620;28;20251;-66
2023/11/21 01:38:25;;;;;;;5.27;4.60;;;8.00;99.90;;;8.37;100.00;97340.38;10397860;28;20234;-66
2023/11/21 01:43:30;;;;;;;9.13;5.23;;;7.90;99.90;;;8.39;100.00;97340.50;10396158;28;20233;-65
2023/11/21 01:48:33;;;;;;;9.25;4.85;;;7.90;99.90;;;8.33;100.00;97341.00;10396931;28;20231;-66
2023/11/21 01:53:38;;;;;;;4.63;3.60;;;7.90;99.90;;;8.40;100.00;97334.63;10395917;28;20261;-66
2023/11/21 01:58:43;;;;;;;5.37;3.50;;;7.90;99.90;;;8.35;100.00;97344.50;10395045;28;20229;-66
2023/11/21 02:03:46;;;;;;;4.53;2.97;;;7.90;99.90;;;8.42;100.00;97353.41;10398324;28;20226;-66
2023/11/21 02:08:51;;;;;;;4.75;4.00;;;7.90;99.90;;;8.39;100.00;97346.47;10395366;28;20333;-66
2023/11/21 02:13:54;;;;;;;9.20;4.33;;;7.90;99.90;;;8.33;100.00;97349.50;10395896;28;20253;-67
2023/11/21 02:18:58;;;;;;;7.33;3.57;;;7.90;99.90;;;8.41;100.00;97339.78;10397226;28;20228;-65
2023/11/21 02:24:03;;;;;;;5.00;3.17;;;7.90;99.90;;;8.45;100.00;97334.09;10395517;28;20221;-66
2023/11/21 02:29:06;;;;;;;4.47;3.10;;;8.00;99.90;;;8.42;100.00;97336.47;10394525;28;20317;-66
2023/11/21 02:34:09;;;;;;;4.07;3.10;;;8.00;99.90;;;8.42;100.00;97333.03;10396322;28;20236;-65
2023/11/21 02:39:14;;;;;;;4.00;2.72;;;8.00;99.90;;;8.48;100.00;97325.75;10397508;28;20320;-65
2023/11/21 02:44:17;;;;;;;4.13;3.00;;;8.00;99.90;;;8.46;100.00;97325.66;10394734;28;20297;-66
2023/11/21 02:49:20;;;;;;;4.57;3.03;;;7.90;99.90;;;8.43;100.00;97325.47;10395423;28;20890;-65
2023/11/21 02:54:27;;;;;;;4.47;3.50;;;7.90;99.90;;;8.45;100.00;97323.91;10399436;28;20309;-66
2023/11/21 02:59:30;;;;;;;4.90;3.88;;;8.00;99.90;;;8.41;100.00;97323.63;10405134;28;20586;-66
2023/11/21 03:04:34;;;;;;;6.60;3.08;;;7.90;99.90;;;8.62;100.00;97323.97;10405711;28;20231;-65
2023/11/21 03:09:39;;;;;;;5.95;2.85;;;8.00;99.90;;;8.43;100.00;97320.38;10402480;28;20221;-66
2023/11/21 03:14:43;;;;;;;3.63;2.60;;;7.90;99.90;;;8.43;100.00;97320.38;10401526;28;20250;-65
2023/11/21 03:19:46;;;;;;;3.00;2.30;;;7.90;99.90;;;8.54;100.00;97316.78;10401899;28;20230;-66
2023/11/21 03:24:50;;;;;;;4.70;2.60;;;8.00;99.90;;;8.46;100.00;97322.22;10401075;28;20221;-66
2023/11/21 03:29:54;;;;;;;2.58;2.17;;;8.00;99.90;;;8.42;100.00;97333.03;10403150;28;20234;-67
2023/11/21 03:35:00;;;;;;;4.95;2.55;;;7.90;99.90;;;8.41;100.00;97332.13;10405394;28;20233;-66
2023/11/21 03:40:08;;;;;;;4.50;2.40;;;7.90;99.90;;;8.44;100.00;97329.78;10401086;28;20599;-65
2023/11/21 03:45:12;;;;;;;3.72;3.20;;;8.00;99.90;;;8.48;100.00;97333.38;10403411;28;20253;-66
2023/11/21 03:50:16;;;;;;;3.88;2.53;;;8.00;99.90;;;8.48;100.00;97344.44;10400926;28;20345;-65
2023/11/21 03:55:21;;;;;;;4.10;2.70;;;7.90;99.90;;;8.47;100.00;97335.06;10399954;28;20230;-65
2023/11/21 04:00:24;;;;;;;5.97;3.15;;;7.90;99.90;;;8.44;100.00;97334.88;10399965;28;20317;-66
2023/11/21 04:05:27;;;;;;;4.73;3.23;;;8.00;99.90;;;8.40;100.00;97335.50;10400712;28;20226;-65
2023/11/21 04:10:31;;;;;;;5.00;2.97;;;8.00;99.90;;;8.41;100.00;97339.78;10400065;28;20233;-65
2023/11/21 04:15:35;;;;;;;5.88;2.97;;;8.00;99.90;;;8.40;100.00;97335.50;10398623;28;20268;-65
2023/11/21 04:20:38;;;;;;;6.68;3.10;;;7.90;99.90;;;8.40;100.00;97335.50;10398978;28;20228;-67
2023/11/21 04:25:42;;;;;;;5.07;2.93;;;7.90;99.90;;;8.30;100.00;97328.97;10400105;28;20226;-66
2023/11/21 04:30:45;;;;;;;4.32;2.60;;;7.80;99.90;;;8.31;100.00;97333.25;10398152;28;20230;-67
2023/11/21 04:35:49;;;;;;;3.50;2.67;;;7.80;99.90;;;8.32;100.00;97332.47;10400692;28;20312;-66
2023/11/21 04:40:53;;;;;;;3.40;2.65;;;7.90;99.90;;;8.32;100.00;97339.22;10395920;28;20222;-66
2023/11/21 04:45:56;;;;;;;5.47;3.10;;;7.90;99.90;;;8.31;100.00;97347.66;10399736;28;20222;-66
2023/11/21 04:51:00;;;;;;;4.15;3.10;;;7.80;99.90;;;8.33;100.00;97356.28;10405189;28;20233;-66
2023/11/21 04:56:05;;;;;;;4.43;2.70;;;7.90;99.90;;;8.37;100.00;97355.66;10394202;28;20272;-67
2023/11/21 05:01:09;;;;;;;2.97;2.13;;;7.90;99.90;;;8.39;100.00;97356.66;10396840;28;20600;-65
2023/11/21 05:06:12;;;;;;;2.75;2.47;;;7.90;99.90;;;8.40;100.00;97358.41;10403438;28;20234;-66
2023/11/21 05:11:26;;;;;;;3.80;3.35;;;7.90;99.90;;;8.25;100.00;97365.13;10400420;28;20236;-66
2023/11/21 05:16:29;;;;;;;3.38;2.58;;;7.80;99.90;;;8.32;100.00;97369.78;10393272;28;20225;-66
2023/11/21 05:21:32;;;;;;;4.82;2.50;;;7.80;99.90;;;8.33;100.00;97379.19;10396461;28;20640;-66
2023/11/21 05:26:37;;;;;;;3.00;2.63;;;7.90;99.90;;;8.36;100.00;97379.38;10398886;28;20241;-66
2023/11/21 05:31:40;;;;;;;4.32;3.78;;;7.90;99.90;;;8.42;100.00;97384.84;10394332;28;20225;-66
2023/11/21 05:36:45;;;;;;;4.75;4.20;;;7.90;99.90;;;8.38;100.00;97392.19;10393764;28;20371;-65
2023/11/21 05:41:50;;;;;;;4.32;3.92;;;7.90;99.90;;;8.36;100.00;97394.66;10400277;28;20807;-66
2023/11/21 05:46:53;;;;;;;4.93;4.03;;;7.90;99.90;;;8.32;100.00;97405.44;10402485;28;20245;-66
2023/11/21 05:51:56;;;;;;;5.50;4.70;;;7.80;99.90;;;8.29;100.00;97397.63;10402562;28;20607;-64
2023/11/21 05:57:04;;;;;;;6.50;5.17;;;7.80;99.90;;;8.25;100.00;97405.88;10401282;28;20324;-65
2023/11/21 06:02:07;;;;;;;7.13;6.18;;;7.80;99.90;;;8.29;100.00;97406.13;10397384;28;20735;-65
2023/11/21 06:07:11;;;;;;;5.57;4.30;;;7.80;99.90;;;8.33;100.00;97414.84;10401081;28;20958;-66
2023/11/21 06:12:16;;;;;;;4.93;3.95;;;7.90;99.90;;;8.37;100.00;97416.75;10401051;28;20267;-66
2023/11/21 06:17:19;;;;;;;12.48;7.85;;;7.90;99.90;;;8.32;100.00;97423.25;10400161;28;20603;-66
2023/11/21 06:22:23;;;;;;;7.03;5.93;;;7.80;99.90;;;8.29;100.00;97429.03;10403497;28;20925;-66
2023/11/21 06:27:27;;;;;;;6.00;5.40;;;7.80;99.90;;;8.24;100.00;97429.56;10404765;28;20633;-66
2023/11/21 06:32:31;;;;;;;6.10;5.50;;;7.70;99.90;;;8.22;100.00;97426.06;10405651;28;20221;-66
2023/11/21 06:37:34;;;;;;;6.05;5.45;;;7.70;99.90;;;8.26;100.00;97428.00;10407419;28;20226;-66
2023/11/21 06:42:39;;;;;;;6.37;5.87;;;7.80;99.90;;;8.31;100.00;97429.16;10407728;28;20222;-67
2023/11/21 06:47:42;;;;;;;6.53;5.93;;;7.80;99.90;;;8.23;100.00;97438.00;10415774;28;20291;-66
2023/11/21 06:52:46;;;;;;;6.38;5.63;;;7.70;99.90;;;8.27;100.00;97439.91;10413226;28;20351;-66
2023/11/21 06:57:52;;;;;;;5.93;4.97;;;7.80;99.90;;;8.31;100.00;97452.06;10410747;28;20228;-65
2023/11/21 07:02:55;;;;;;;4.65;4.25;;;7.80;99.90;;;8.33;100.00;97453.91;10409211;28;20724;-66
2023/11/21 07:08:04;;;;;;;4.80;4.13;;;7.80;99.90;;;8.39;100.00;97461.06;10409427;28;20229;-66
2023/11/21 07:13:10;;;;;;;6.53;5.93;;;7.90;99.90;;;8.42;100.00;97468.00;10412592;28;20709;-67
2023/11/21 07:18:14;;;;;;;4.25;3.95;;;7.90;99.90;;;8.39;100.00;97465.28;10412830;28;20225;-67
2023/11/21 07:23:17;;;;;;;3.88;3.58;;;7.80;99.90;;;8.42;100.00;97480.75;10408894;28;20237;-65
2023/11/21 07:28:21;;;;;;;4.23;3.90;;;7.90;99.90;;;8.47;100.00;97485.31;10403769;28;20225;-66
2023/11/21 07:33:25;;;;;;;4.57;4.00;;;7.90;99.90;;;8.48;100.00;97486.19;10407204;28;20233;-65
2023/11/21 07:38:28;;;;;;;5.53;4.93;;;7.90;99.90;;;8.50;100.00;97493.13;10405739;28;20301;-66
2023/11/21 07:43:34;;;;;;;4.45;3.63;;;8.00;99.90;;;8.54;100.00;97500.16;10410206;28;20604;-65
2023/11/21 07:48:38;;;;;;;12.45;11.20;;;8.00;99.90;;;8.59;100.00;97503.00;10408299;28;20234;-66
2023/11/21 07:53:41;;;;;;;7.43;6.75;;;8.00;99.90;;;8.66;100.00;97501.66;10407073;28;20229;-66
2023/11/21 07:58:46;;;;;;;7.32;6.63;;;8.00;99.90;;;8.66;100.00;97516.94;10407961;28;20230;-66
2023/11/21 08:03:52;;;;;;;6.72;6.05;;;8.10;99.90;;;8.67;100.00;97516.16;10407413;28;20243;-66
2023/11/21 08:08:55;;;;;;;5.78;5.18;;;8.10;99.90;;;8.81;100.00;97515.28;10405009;28;20329;-67
2023/11/21 08:14:00;;;;;;;5.55;5.10;;;8.20;99.90;;;8.80;100.00;97519.50;10405012;28;20342;-66
2023/11/21 08:19:03;;;;;;;5.55;5.05;;;8.20;99.90;;;8.83;100.00;97510.28;10407900;28;20228;-66
2023/11/21 08:24:10;;;;;;;5.78;4.93;;;8.20;99.90;;;8.87;100.00;97510.56;10413807;28;20253;-66
2023/11/21 08:29:16;;;;;;;6.70;5.15;;;8.30;99.90;;;8.93;100.00;97515.16;10402972;28;20249;-65
2023/11/21 08:34:19;;;;;;;4.45;4.05;;;8.40;99.90;;;8.92;100.00;97516.78;10407533;28;20269;-66
2023/11/21 08:39:24;;;;;;;3.72;3.42;;;8.40;99.90;;;8.94;100.00;97522.00;10404212;28;20226;-66
2023/11/21 08:44:28;;;;;;;3.13;2.83;;;8.30;99.90;;;8.97;100.00;97525.59;10402378;28;20252;-66
2023/11/21 08:49:32;;;;;;;4.68;4.07;;;8.40;99.90;;;9.01;100.00;97531.72;10406039;28;20283;-65
2023/11/21 08:54:36;;;;;;;4.22;3.70;;;8.40;99.90;;;9.10;100.00;97533.94;10395511;28;20660;-66
2023/11/21 08:59:40;;;;;;;3.97;3.63;;;8.50;99.90;;;9.17;100.00;97538.59;10403420;28;20302;-67
2023/11/21 09:04:43;;;;;;;3.65;3.13;;;8.60;99.90;;;9.16;100.00;97542.84;10406053;28;20228;-66
2023/11/21 09:09:50;;;;;;;7.38;6.88;;;8.60;99.90;;;9.17;100.00;97543.69;10402437;28;20656;-66
2023/11/21 09:14:55;;;;;;;8.20;7.63;;;8.60;99.90;;;9.20;100.00;97548.97;10402539;28;20312;-66
2023/11/21 09:19:58;;;;;;;3.80;3.10;;;8.70;99.90;;;9.19;100.00;97552.34;10412063;28;20260;-65
2023/11/21 09:25:04;;;;;;;3.60;2.53;;;8.60;99.90;;;9.27;100.00;97551.09;10403910;28;20222;-67
2023/11/21 09:30:10;;;;;;;3.67;2.53;;;8.70;99.90;;;9.36;100.00;97560.94;10406634;28;20261;-67
2023/11/21 09:35:14;;;;;;;2.80;2.60;;;8.80;99.90;;;9.40;100.00;97561.19;10404646;28;20268;-66
2023/11/21 09:40:23;;;;;;;2.83;2.42;;;8.80;99.90;;;9.40;100.00;97568.84;10399156;28;20257;-66
2023/11/21 09:45:31;;;;;;;3.38;2.70;;;8.80;99.90;;;9.40;100.00;97573.94;10408682;28;20225;-65
2023/11/21 09:50:37;;;;;;;2.95;2.75;;;8.90;99.90;;;9.47;100.00;97567.50;10402345;28;20236;-66
2023/11/21 09:55:44;;;;;;;4.07;2.67;;;8.90;99.90;;;9.48;100.00;97572.72;10409062;28;20275;-66
2023/11/21 10:00:50;;;;;;;3.42;3.03;;;8.90;99.90;;;9.59;100.00;97567.34;10403067;28;20918;-66
2023/11/21 10:05:59;;;;;;;3.75;2.55;;;9.00;99.90;;;9.57;100.00;97576.56;10403873;28;21024;-65
2023/11/21 10:11:06;;;;;;;3.15;2.85;;;9.00;99.90;;;9.57;100.00;97586.78;10400401;28;20728;-66
2023/11/21 10:16:13;;;;;;;3.85;2.70;;;9.10;99.90;;;9.66;100.00;97587.28;10398026;28;20665;-66
2023/11/21 10:21:17;;;;;;;2.85;2.65;;;9.10;99.90;;;9.71;100.00;97590.97;10402688;28;20257;-66
2023/11/21 10:26:23;;;;;;;3.35;3.08;;;9.20;99.90;;;9.86;100.00;97584.16;10401382;28;20228;-66
2023/11/21 10:31:36;;;;;;;2.92;2.72;;;9.30;99.90;;;9.97;100.00;97573.69;10401377;28;20705;-66
2023/11/21 10:36:39;;;;;;;3.42;3.10;;;9.40;99.90;;;10.11;100.00;97581.28;10399322;28;20253;-66
2023/11/21 10:41:42;;;;;;;3.10;2.90;;;9.50;99.90;;;10.50;100.00;97583.34;10400709;28;20316;-66
2023/11/21 10:46:50;;;;;;;3.38;3.17;;;9.90;99.90;;;10.48;100.00;97584.97;10401041;28;20229;-66
2023/11/21 10:51:55;;;;;;;3.28;2.78;;;9.90;99.90;;;10.35;100.00;97581.75;10401273;28;20589;-66
2023/11/21 10:57:01;;;;;;;3.85;3.20;;;9.80;99.90;;;10.39;100.00;97590.47;10398674;28;20736;-66
2023/11/21 11:02:21;;;;;;;3.22;3.00;;;9.70;99.90;;;10.26;100.00;97578.66;10401284;28;20218;-66
2023/11/21 11:07:28;;;;;;;2.97;2.70;;;9.60;99.90;;;10.29;100.00;97578.88;10397490;28;20233;-66
2023/11/21 11:12:32;;;;;;;3.05;2.85;;;9.60;99.90;;;10.24;100.00;97585.38;10400477;28;20316;-67
2023/11/21 11:17:40;;;;;;;2.70;2.55;;;9.60;99.90;;;10.25;100.00;97587.13;10408038;28;20240;-66
2023/11/21 11:22:51;;;;;;;3.03;2.83;;;9.60;99.90;;;10.12;100.00;97587.25;10405832;28;20232;-65
2023/11/21 11:28:04;;;;;;;3.22;2.90;;;9.50;99.90;;;10.12;100.00;97587.25;10406895;28;20464;-66
2023/11/21 11:33:21;;;;;;;3.08;2.78;;;9.50;99.90;;;10.19;100.00;97581.72;10403458;28;20244;-66
2023/11/21 11:38:25;;;;;;;2.75;2.50;;;9.60;99.90;;;10.17;100.00;97578.19;10405133;28;20749;-66
2023/11/21 11:43:29;;;;;;;2.55;2.35;;;9.60;99.90;;;10.15;100.00;97574.66;10405363;28;20230;-67
2023/11/21 11:48:39;;;;;;;2.53;2.38;;;9.60;99.90;;;10.27;100.00;97577.94;10403090;28;20755;-66
2023/11/21 11:53:43;;;;;;;3.03;2.60;;;9.70;99.90;;;10.27;100.00;97580.47;10405261;28;20222;-66
2023/11/21 11:58:46;;;;;;;6.13;5.72;;;9.70;99.90;;;10.38;100.00;97588.69;10406009;28;20225;-66
2023/11/21 12:04:34;;;;;;;2.63;2.15;;;9.70;99.90;;;10.28;100.00;97587.34;10406837;28;20317;-67
2023/11/21 12:09:38;;;;;;;2.35;2.15;;;9.60;99.90;;;10.28;100.00;97592.44;10357324;28;20246;-66
2023/11/21 12:14:41;;;;;;;3.47;2.17;;;9.70;99.90;;;10.23;100.00;97588.72;10403615;28;20229;-65
2023/11/21 12:19:46;;;;;;;2.72;2.45;;;9.70;99.90;;;10.25;100.00;97588.81;10404327;28;20229;-67
2023/11/21 12:24:49;;;;;;;8.30;5.90;;;9.70;99.90;;;10.37;100.00;97592.06;10406057;28;20585;-67
2023/11/21 12:29:52;;;;;;;13.15;9.45;;;9.80;99.90;;;10.37;100.00;97598.03;10403873;28;20248;-66
2023/11/21 12:34:58;;;;;;;22.75;16.50;;;9.80;99.90;;;10.54;100.00;97598.06;10405017;28;20451;-67
2023/11/21 12:40:01;;;;;;;13.48;10.32;;;9.90;99.90;;;10.63;100.00;97601.09;10404052;28;21021;-67
2023/11/21 12:45:19;;;;;;;25.65;20.52;;;9.90;99.90;;;10.63;100.00;97608.75;10404117;28;20259;-67
2023/11/21 12:50:28;;;;;;;4.43;3.60;;;9.90;99.90;;;10.63;100.00;97606.22;10403426;28;20229;-69
2023/11/21 12:55:37;;;;;;;2.63;2.42;;;9.90;99.90;;;10.76;100.00;97606.06;10408998;28;20297;-67
2023/11/21 13:00:44;;;;;;;2.33;2.15;;;10.00;99.90;;;10.54;100.00;97601.50;10428548;28;21034;-67
2023/11/21 13:05:51;;;;;;;2.63;2.25;;;9.90;99.90;;;10.41;100.00;97616.09;10429216;28;20293;-67
2023/11/21 13:10:57;;;;;;;2.05;1.95;;;9.80;99.90;;;10.19;100.00;97617.47;10427815;28;20264;-67
2023/11/21 13:16:04;;;;;;;2.33;2.15;;;9.60;99.90;;;10.07;100.00;97617.69;10415233;28;20229;-65
2023/11/21 13:21:13;;;;;;;2.45;2.25;;;9.60;99.90;;;10.00;100.00;97617.25;10402194;28;20276;-66
2023/11/21 13:26:16;;;;;;;2.80;2.65;;;9.50;99.90;;;9.92;100.00;97621.91;10400322;28;20336;-66
2023/11/21 13:31:26;;;;;;;2.95;2.75;;;9.40;99.90;;;9.99;100.00;97643.59;10401453;28;20714;-66
2023/11/21 13:36:33;;;;;;;3.30;3.10;;;9.50;99.90;;;9.91;100.00;97635.50;10402562;28;20233;-66
2023/11/21 13:41:38;;;;;;;3.30;3.00;;;9.40;99.90;;;9.98;100.00;97646.91;10395322;28;20674;-65
2023/11/21 13:46:42;;;;;;;3.30;2.92;;;9.50;99.90;;;9.99;100.00;97647.00;10402905;28;20268;-66
2023/11/21 13:51:50;;;;;;;3.20;2.97;;;9.50;99.90;;;10.09;100.00;97645.84;10401228;28;20229;-68
2023/11/21 13:56:54;;;;;;;3.63;3.42;;;9.50;99.90;;;10.11;100.00;97644.25;10399929;28;20225;-67
2023/11/21 14:01:59;;;;;;;5.38;4.53;;;9.60;99.90;;;10.04;100.00;97647.25;10400834;28;20224;-66
2023/11/21 14:07:20;;;;;;;9.98;8.73;;;9.60;99.90;;;10.01;100.00;97657.28;10402507;28;20305;-66
2023/11/21 14:12:23;;;;;;;2.97;2.65;;;9.50;99.90;;;9.90;100.00;97672.91;10399907;28;20324;-66
2023/11/21 14:17:27;;;;;;;2.78;1.98;;;9.40;99.90;;;9.78;100.00;97677.28;10400779;28;20240;-67
2023/11/21 14:22:31;;;;;;;4.38;4.00;;;9.30;99.90;;;9.53;100.00;97676.66;10398350;28;20230;-66
2023/11/21 14:27:35;;;;;;;2.38;2.17;;;9.10;99.90;;;9.50;100.00;97691.81;10398571;28;20704;-66
2023/11/21 14:32:39;;;;;;;1.83;1.75;;;9.10;99.90;;;9.31;100.00;97684.75;10401033;28;20217;-66
2023/11/21 14:37:44;;;;;;;2.35;2.25;;;9.00;99.90;;;9.27;100.00;97693.91;10397927;28;20858;-67
2023/11/21 14:42:47;;;;;;;2.00;1.90;;;8.90;99.90;;;9.11;100.00;97701.44;10395834;28;20300;-66
2023/11/21 14:47:58;;;;;;;3.83;3.63;;;8.80;99.90;;;9.19;100.00;97700.22;10401690;28;20233;-66
2023/11/21 14:53:05;;;;;;;5.90;5.60;;;8.80;99.90;;;9.19;100.00;97710.41;10402068;28;20225;-67
2023/11/21 14:58:12;;;;;;;5.25;4.95;;;8.80;99.90;;;9.25;100.00;97715.88;10406185;28;20302;-68
2023/11/21 15:03:36;;;;;;;2.88;2.67;;;8.80;99.90;;;9.16;100.00;97731.50;10409691;28;20229;-67
2023/11/21 15:08:43;;;;;;;3.38;3.17;;;8.70;99.90;;;9.10;100.00;97727.69;10404655;28;20261;-67
2023/11/21 15:13:48;;;;;;;2.38;2.28;;;8.60;99.90;;;9.09;100.00;97733.59;10405185;28;20217;-67
2023/11/21 15:18:51;;;;;;;3.03;2.75;;;8.60;99.90;;;9.16;100.00;97743.38;10406314;28;20320;-66
2023/11/21 15:23:56;;;;;;;3.15;2.85;;;8.70;99.90;;;9.11;100.00;97742.22;10407105;28;20236;-66
2023/11/21 15:28:59;;;;;;;2.50;2.40;;;8.60;99.90;;;9.18;100.00;97754.53;10402396;28;20226;-66
2023/11/21 15:34:05;;;;;;;3.30;3.10;;;8.70;99.90;;;9.20;100.00;97753.84;10406612;28;20246;-67
2023/11/21 15:39:10;;;;;;;3.67;3.40;;;8.70;99.90;;;9.17;100.00;97755.34;10399655;28;20226;-67
2023/11/21 15:44:13;;;;;;;4.10;3.80;;;8.60;99.90;;;9.17;100.00;97770.63;10389054;28;20720;-67
2023/11/21 15:49:21;;;;;;;3.88;3.58;;;8.60;99.90;;;9.17;100.00;97775.72;10403281;28;20241;-67
2023/11/21 15:54:27;;;;;;;4.55;4.15;;;8.60;99.90;;;9.15;100.00;97779.84;10399294;28;20305;-67
2023/11/21 15:59:31;;;;;;;6.75;5.95;;;8.60;99.90;;;9.08;100.00;97791.34;10396017;28;20237;-67
2023/11/21 16:04:37;;;;;;;15.05;13.43;;;8.50;99.90;;;9.12;100.00;97800.94;10396168;28;20226;-67
2023/11/21 16:09:43;;;;;;;8.50;7.70;;;8.50;99.90;;;9.15;100.00;97801.13;10401389;28;20230;-67
2023/11/21 16:14:47;;;;;;;6.85;5.78;;;8.60;99.90;;;9.17;100.00;97808.88;10394378;28;20233;-66
2023/11/21 16:19:50;;;;;;;14.85;9.73;;;8.60;99.90;;;9.13;100.00;97809.47;10397180;28;20225;-66
2023/11/21 16:24:55;;;;;;;15.05;9.98;;;8.60;99.90;;;9.13;100.00;97814.56;10393166;28;20214;-67
2023/11/21 16:29:59;;;;;;;17.30;12.85;;;8.60;99.90;;;9.13;100.00;97817.13;10405262;28;20732;-67
2023/11/21 16:35:03;;;;;;;14.07;12.23;;;8.60;99.90;;;9.05;100.00;97831.09;10401331;28;20228;-65
2023/11/21 16:40:10;;;;;;;8.18;7.38;;;8.50;99.90;;;8.95;100.00;97837.25;10394137;28;20233;-65
2023/11/21 16:45:14;;;;;;;7.43;6.72;;;8.40;99.90;;;8.94;100.00;97844.03;10390427;28;20214;-66
2023/11/21 16:50:17;;;;;;;35.30;27.73;;;8.30;99.90;;;8.83;100.00;97847.56;10398461;28;20233;-65
2023/11/21 16:55:23;;;;;;;11.70;10.55;;;8.30;99.90;;;8.71;100.00;97856.97;10400869;28;20601;-66
2023/11/21 17:00:26;;;;;;;13.27;12.00;;;8.10;99.90;;;8.67;100.00;97862.66;10397991;28;20261;-66
2023/11/21 17:05:31;;;;;;;23.80;21.30;;;8.10;99.90;;;8.63;100.00;97866.66;10400198;28;20221;-66
2023/11/21 17:10:36;;;;;;;13.82;12.52;;;8.00;99.90;;;8.56;100.00;97878.13;10404657;28;20743;-66
2023/11/21 17:15:40;;;;;;;13.82;12.73;;;7.90;99.90;;;8.44;100.00;97876.44;10397111;28;20224;-67
2023/11/21 17:20:43;;;;;;;11.35;10.27;;;7.80;99.90;;;8.33;100.00;97883.38;10404822;28;20226;-66
2023/11/21 17:25:48;;;;;;;12.13;11.13;;;7.70;99.90;;;8.27;100.00;97877.84;10403610;28;20610;-66
2023/11/21 17:30:51;;;;;;;10.13;9.32;;;7.70;99.90;;;8.18;100.00;97892.50;10399160;28;20229;-67
2023/11/21 17:35:55;;;;;;;14.15;12.68;;;7.60;99.90;;;8.11;100.00;97892.13;10403076;28;20226;-67
2023/11/21 17:41:00;;;;;;;15.05;12.23;;;7.50;99.90;;;8.07;100.00;97909.63;10398954;28;20276;-67
2023/11/21 17:46:03;;;;;;;15.23;13.77;;;7.40;99.90;;;7.87;100.00;97910.84;10396662;28;20478;-68
2023/11/21 17:51:07;;;;;;;27.55;20.27;;;7.20;99.90;;;7.78;100.00;97905.97;10398449;28;20308;-67
2023/11/21 17:56:16;;;;;;;19.80;16.02;;;7.20;99.90;;;7.67;100.00;97915.44;10398766;28;20221;-66
2023/11/21 18:01:20;;;;;;;46.50;29.23;;;7.00;99.90;;;7.64;100.00;97922.84;10398443;28;20226;-67
2023/11/21 18:06:23;;;;;;;44.70;32.13;;;7.00;99.90;;;7.59;100.00;97929.28;10395684;28;20230;-67
2023/11/21 18:11:28;;;;;;;16.40;13.98;;;7.00;99.90;;;7.62;100.00;97938.78;10392931;28;20237;-67
2023/11/21 18:16:31;;;;;;;14.83;11.63;;;7.00;99.90;;;7.61;100.00;97953.16;10396209;28;20235;-67
2023/11/21 18:21:34;;;;;;;22.90;19.33;;;7.00;99.90;;;7.62;100.00;97956.59;10396430;28;20229;-67
2023/11/21 18:26:39;;;;;;;25.43;22.73;;;7.10;99.90;;;7.64;100.00;97968.66;10393208;28;20229;-67
2023/11/21 18:31:42;;;;;;;21.00;17.97;;;7.10;99.90;;;7.66;100.00;97971.28;10391908;28;20233;-67
2023/11/21 18:36:45;;;;;;;14.65;12.40;;;7.10;99.90;;;7.72;100.00;97981.00;10390152;28;20320;-66
2023/11/21 18:41:51;;;;;;;14.77;13.27;;;7.20;99.90;;;7.67;100.00;97984.13;10386480;28;20321;-66
2023/11/21 18:46:54;;;;;;;14.67;13.27;;;7.10;99.90;;;7.71;100.00;97994.50;10390559;28;20217;-66
2023/11/21 18:51:58;;;;;;;13.07;11.73;;;7.20;99.90;;;7.74;100.00;97995.59;10387337;28;20256;-65
2023/11/21 18:57:02;;;;;;;18.35;15.05;;;7.20;99.90;;;7.78;100.00;98006.88;10386281;28;20221;-67
2023/11/21 19:02:08;;;;;;;20.02;17.85;;;7.20;99.90;;;7.85;100.00;98009.06;10385806;28;20226;-68
2023/11/21 19:07:12;;;;;;;21.57;18.53;;;7.30;99.90;;;7.84;100.00;98020.91;10384025;28;20233;-67
2023/11/21 19:12:16;;;;;;;17.03;15.23;;;7.20;99.90;;;7.82;100.00;98019.03;10384481;28;20367;-68
2023/11/21 19:17:21;;;;;;;17.77;15.27;;;7.20;99.90;;;7.77;100.00;98026.34;10390123;28;20710;-66
2023/11/21 19:22:24;;;;;;;19.75;17.67;;;7.20;99.90;;;7.85;100.00;98016.72;10385378;28;20234;-66
2023/11/21 19:27:30;;;;;;;19.43;15.17;;;7.20;99.90;;;7.78;100.00;98032.31;10383721;28;20292;-66
2023/11/21 19:32:34;;;;;;;18.70;15.00;;;7.10;99.90;;;7.75;100.00;98029.56;10385132;28;20218;-66
2023/11/21 19:37:39;;;;;;;17.33;14.37;;;7.20;99.90;;;7.75;100.00;98029.56;10389112;28;20721;-67
2023/11/21 19:42:43;;;;;;;22.10;18.43;;;7.20;99.90;;;7.70;100.00;98044.50;10388734;28;20601;-66
2023/11/21 19:47:47;;;;;;;40.23;29.80;;;7.20;99.90;;;7.73;100.00;98044.72;10396431;28;20221;-67
2023/11/21 19:52:51;;;;;;;21.87;16.90;;;7.20;99.90;;;7.72;100.00;98052.22;10394087;28;20248;-67
2023/11/21 19:57:55;;;;;;;35.08;27.60;;;7.20;99.90;;;7.69;100.00;98057.97;10396025;28;20241;-67
2023/11/21 20:02:58;;;;;;;21.87;17.63;;;7.20;99.90;;;7.71;100.00;98065.75;10394912;28;20229;-66
2023/11/21 20:08:02;;;;;;;19.65;16.77;;;7.20;99.90;;;7.73;100.00;98066.75;10393946;28;20736;-67
2023/11/21 20:13:06;;;;;;;18.80;16.77;;;7.20;99.90;;;7.75;100.00;98073.69;10393439;28;20322;-66
2023/11/21 20:18:11;;;;;;;22.42;18.08;;;7.10;99.90;;;7.72;100.00;98077.66;10386303;28;20611;-67
2023/11/21 20:23:15;;;;;;;20.77;17.65;;;7.20;99.90;;;7.71;100.00;98088.63;10391507;28;20651;-66
2023/11/21 20:28:20;;;;;;;16.73;15.02;;;7.10;99.90;;;7.75;100.00;98091.50;10391064;28;20312;-67
2023/11/21 20:33:23;;;;;;;16.90;14.77;;;7.20;99.90;;;7.72;100.00;98095.47;10389852;28;20222;-66
2023/11/21 20:38:27;;;;;;;19.13;15.27;;;7.10;99.90;;;7.73;100.00;98112.53;10391047;28;20229;-66
2023/11/21 20:43:32;;;;;;;17.20;14.18;;;7.10;99.90;;;7.79;100.00;98115.50;10388681;28;20227;-66
2023/11/21 20:48:35;;;;;;;17.17;15.15;;;7.20;99.90;;;7.77;100.00;98112.84;10389581;28;20230;-67
2023/11/21 20:53:38;;;;;;;17.25;14.82;;;7.20;99.90;;;7.72;100.00;98113.28;10389972;28;20648;-66
2023/11/21 20:58:43;;;;;;;20.88;18.60;;;7.10;99.90;;;7.70;100.00;98113.19;10393996;28;20247;-66
2023/11/21 21:03:46;;;;;;;25.00;22.60;;;7.20;99.90;;;7.71;100.00;98126.78;10387731;28;20748;-66
2023/11/21 21:08:50;;;;;;;21.37;19.17;;;7.20;99.90;;;7.76;100.00;98126.34;10386953;28;20233;-67
2023/11/21 21:13:55;;;;;;;23.55;20.08;;;7.20;99.90;;;7.78;100.00;98129.00;10389294;28;20229;-67